createdAt,value
2018-11-26T00:00:50.090Z,19.4
2018-11-26T00:02:50.123Z,19.4
2018-11-26T00:04:50.374Z,18.5
2018-11-26T00:06:49.502Z,18.5
2018-11-26T00:08:49.457Z,20.4
2018-11-26T00:10:49.472Z,20.4
2018-11-26T00:12:50.051Z,19.6
2018-11-26T00:14:49.996Z,19.6
2018-11-26T00:16:50.280Z,18.8
2018-11-26T00:18:50.183Z,19.8
2018-11-26T00:20:50.195Z,19.8
2018-11-26T00:22:50.178Z,19.5
2018-11-26T00:24:50.124Z,19.5
2018-11-26T00:26:50.288Z,19.5
2018-11-26T00:28:50.245Z,18.1
2018-11-26T00:30:50.187Z,17.6
2018-11-26T00:32:50.288Z,17.6
2018-11-26T00:34:49.587Z,17.5
2018-11-26T00:36:49.800Z,16.7
2018-11-26T00:38:49.778Z,19.2
2018-11-26T00:40:49.808Z,19.2
2018-11-26T00:42:49.776Z,19.0
2018-11-26T00:44:49.782Z,19.1
2018-11-26T00:46:49.897Z,18.1
2018-11-26T00:48:49.859Z,18.1
2018-11-26T00:50:49.839Z,18.6
2018-11-26T00:52:49.821Z,18.6
2018-11-26T00:54:49.780Z,18.7
2018-11-26T00:56:49.983Z,19.7
2018-11-26T00:58:49.935Z,18.7
2018-11-26T01:00:49.860Z,18.7
2018-11-26T01:02:49.875Z,18.8
2018-11-26T01:04:50.310Z,17.1
2018-11-26T01:06:49.576Z,18.0
2018-11-26T01:08:49.643Z,18.0
2018-11-26T01:10:49.803Z,17.7
2018-11-26T01:12:49.826Z,18.5
2018-11-26T01:14:49.765Z,20.1
2018-11-26T01:16:50.010Z,17.8
2018-11-26T01:18:50.053Z,17.8
2018-11-26T01:20:50.086Z,18.1
2018-11-26T01:22:50.007Z,18.1
2018-11-26T01:24:49.988Z,17.1
2018-11-26T01:26:50.226Z,17.8
2018-11-26T01:28:50.185Z,18.4
2018-11-26T01:30:50.228Z,18.4
2018-11-26T01:32:50.255Z,16.2
2018-11-26T01:34:49.644Z,16.7
2018-11-26T01:36:49.882Z,17.6
2018-11-26T01:38:49.883Z,18.8
2018-11-26T01:40:49.965Z,18.8
2018-11-26T01:42:50.268Z,17.1
2018-11-26T01:44:50.239Z,16.1
2018-11-26T01:46:49.491Z,16.5
2018-11-26T01:48:49.493Z,15.9
2018-11-26T01:50:49.565Z,15.9
2018-11-26T01:52:49.602Z,18.0
2018-11-26T01:54:49.591Z,18.8
2018-11-26T01:56:49.804Z,18.8
2018-11-26T01:58:49.749Z,16.8
2018-11-26T02:00:49.831Z,17.4
2018-11-26T02:02:49.808Z,16.4
2018-11-26T02:04:50.066Z,18.4
2018-11-26T02:06:50.259Z,18.0
2018-11-26T02:08:50.336Z,18.0
2018-11-26T02:10:50.336Z,18.4
2018-11-26T02:12:50.502Z,17.3
2018-11-26T02:14:49.655Z,17.9
2018-11-26T02:16:49.946Z,18.2
2018-11-26T02:18:50.006Z,18.2
2018-11-26T02:20:50.110Z,20.0
2018-11-26T02:22:50.192Z,18.9
2018-11-26T02:24:50.284Z,19.4
2018-11-26T02:26:49.467Z,19.4
2018-11-26T02:28:49.590Z,19.6
2018-11-26T02:30:49.717Z,20.3
2018-11-26T02:32:49.764Z,20.7
2018-11-26T02:34:50.300Z,20.6
2018-11-26T02:36:49.557Z,20.6
2018-11-26T02:38:49.608Z,19.5
2018-11-26T02:40:49.530Z,21.6
2018-11-26T02:42:49.593Z,20.9
2018-11-26T02:44:49.706Z,20.9
2018-11-26T02:46:49.920Z,21.0
2018-11-26T02:48:49.907Z,21.0
2018-11-26T02:50:49.922Z,19.8
2018-11-26T02:52:49.927Z,21.5
2018-11-26T02:54:49.913Z,21.5
2018-11-26T02:56:50.102Z,21.8
2018-11-26T02:58:50.146Z,21.8
2018-11-26T03:00:50.146Z,22.6
2018-11-26T03:02:50.138Z,22.6
2018-11-26T03:04:49.658Z,22.0
2018-11-26T03:06:49.759Z,22.4
2018-11-26T03:08:49.763Z,21.2
2018-11-26T03:10:49.689Z,23.7
2018-11-26T03:12:49.771Z,22.0
2018-11-26T03:14:49.751Z,22.0
2018-11-26T03:16:49.926Z,21.0
2018-11-26T03:18:49.921Z,21.1
2018-11-26T03:20:49.913Z,22.5
2018-11-26T03:22:49.923Z,22.5
2018-11-26T03:24:49.942Z,21.8
2018-11-26T03:26:50.091Z,21.6
2018-11-26T03:28:50.049Z,21.6
2018-11-26T03:30:50.049Z,20.1
2018-11-26T03:32:50.116Z,20.1
2018-11-26T03:34:50.428Z,20.8
2018-11-26T03:36:49.665Z,22.8
2018-11-26T03:38:49.653Z,19.9
2018-11-26T03:40:49.614Z,22.6
2018-11-26T03:42:49.648Z,22.6
2018-11-26T03:44:49.633Z,24.5
2018-11-26T03:46:49.900Z,23.0
2018-11-26T03:48:49.881Z,23.1
2018-11-26T03:50:49.920Z,22.1
2018-11-26T03:52:49.902Z,22.1
2018-11-26T03:54:49.998Z,21.1
2018-11-26T03:56:50.100Z,19.3
2018-11-26T03:58:50.072Z,21.6
2018-11-26T04:00:50.132Z,21.2
2018-11-26T04:02:50.115Z,21.2
2018-11-26T04:04:50.431Z,20.7
2018-11-26T04:06:49.614Z,20.6
2018-11-26T04:08:49.722Z,22.1
2018-11-26T04:10:49.706Z,22.1
2018-11-26T04:12:49.716Z,20.7
2018-11-26T04:14:49.687Z,20.7
2018-11-26T04:16:49.779Z,21.8
2018-11-26T04:18:49.774Z,24.1
2018-11-26T04:20:49.783Z,24.1
2018-11-26T04:22:49.847Z,20.9
2018-11-26T04:24:49.816Z,20.9
2018-11-26T04:26:50.108Z,22.9
2018-11-26T04:28:50.056Z,23.2
2018-11-26T04:30:50.017Z,23.2
2018-11-26T04:32:50.007Z,23.4
2018-11-26T04:34:49.437Z,23.4
2018-11-26T04:36:49.639Z,22.8
2018-11-26T04:38:49.627Z,22.3
2018-11-26T04:40:49.621Z,23.5
2018-11-26T04:42:49.714Z,23.5
2018-11-26T04:44:49.672Z,23.0
2018-11-26T04:46:49.857Z,22.6
2018-11-26T04:48:49.891Z,23.1
2018-11-26T04:50:49.892Z,23.1
2018-11-26T04:52:49.906Z,23.2
2018-11-26T04:54:49.892Z,23.0
2018-11-26T04:56:50.196Z,22.7
2018-11-26T04:58:50.147Z,22.7
2018-11-26T05:00:50.104Z,21.5
2018-11-26T05:02:50.157Z,25.2
2018-11-26T05:04:50.371Z,22.5
2018-11-26T05:06:49.570Z,21.9
2018-11-26T05:08:49.520Z,21.5
2018-11-26T05:10:49.502Z,21.5
2018-11-26T05:12:49.709Z,21.4
2018-11-26T05:14:49.710Z,22.6
2018-11-26T05:16:49.867Z,22.6
2018-11-26T05:18:49.942Z,24.6
2018-11-26T05:20:49.912Z,24.6
2018-11-26T05:22:49.838Z,21.5
2018-11-26T05:24:49.759Z,24.6
2018-11-26T05:26:49.590Z,23.0
2018-11-26T05:28:49.739Z,23.8
2018-11-26T05:30:49.726Z,23.8
2018-11-26T05:32:49.735Z,26.2
2018-11-26T05:34:50.051Z,24.3
2018-11-26T05:36:50.137Z,24.6
2018-11-26T05:38:50.159Z,25.1
2018-11-26T05:40:50.087Z,25.1
2018-11-26T05:42:50.159Z,26.5
2018-11-26T05:44:50.137Z,25.4
2018-11-26T05:46:50.317Z,25.4
2018-11-26T05:48:50.370Z,25.7
2018-11-26T05:50:50.332Z,25.7
2018-11-26T05:52:50.314Z,27.8
2018-11-26T05:54:50.426Z,23.7
2018-11-26T05:56:49.734Z,23.7
2018-11-26T05:58:49.730Z,23.1
2018-11-26T06:00:49.685Z,23.1
2018-11-26T06:02:49.723Z,24.6
2018-11-26T06:04:50.047Z,25.8
2018-11-26T06:06:50.257Z,25.8
2018-11-26T06:08:50.260Z,24.8
2018-11-26T06:10:50.236Z,24.8
2018-11-26T06:12:50.238Z,25.5
2018-11-26T06:14:50.281Z,25.2
2018-11-26T06:16:53.538Z,25.2
2018-11-26T06:18:49.896Z,27.9
2018-11-26T06:20:49.948Z,26.1
2018-11-26T06:22:49.930Z,26.1
2018-11-26T06:24:49.950Z,24.7
2018-11-26T06:26:50.117Z,24.7
2018-11-26T06:28:50.051Z,25.6
2018-11-26T06:30:50.106Z,27.6
2018-11-26T06:32:50.121Z,25.0
2018-11-26T06:34:50.335Z,25.0
2018-11-26T06:36:50.090Z,25.1
2018-11-26T06:38:50.037Z,27.5
2018-11-26T06:40:50.023Z,26.8
2018-11-26T06:42:49.994Z,25.8
2018-11-26T06:44:49.963Z,25.8
2018-11-26T06:46:50.148Z,25.8
2018-11-26T06:48:50.166Z,25.8
2018-11-26T06:50:50.157Z,24.7
2018-11-26T06:52:50.235Z,25.1
2018-11-26T06:54:50.293Z,25.1
2018-11-26T06:56:50.431Z,25.0
2018-11-26T06:58:49.478Z,25.0
2018-11-26T07:00:49.465Z,25.5
2018-11-26T07:02:49.491Z,24.9
2018-11-26T07:04:50.023Z,24.9
2018-11-26T07:06:50.313Z,23.5
2018-11-26T07:08:50.275Z,25.4
2018-11-26T07:10:50.299Z,25.3
2018-11-26T07:12:50.255Z,26.5
2018-11-26T07:14:50.212Z,26.6
2018-11-26T07:16:50.430Z,26.6
2018-11-26T07:18:49.468Z,27.2
2018-11-26T07:20:49.684Z,23.4
2018-11-26T07:22:49.731Z,22.1
2018-11-26T07:24:49.736Z,22.5
2018-11-26T07:26:49.933Z,22.5
2018-11-26T07:28:49.837Z,23.5
2018-11-26T07:30:49.778Z,24.5
2018-11-26T07:32:49.705Z,25.8
2018-11-26T07:34:50.027Z,25.8
2018-11-26T07:36:50.274Z,26.0
2018-11-26T07:38:50.252Z,26.0
2018-11-26T07:40:50.273Z,23.7
2018-11-26T07:42:50.212Z,21.8
2018-11-26T07:44:50.164Z,21.8
2018-11-26T07:46:50.408Z,23.5
2018-11-26T07:48:49.445Z,21.5
2018-11-26T07:50:49.632Z,22.5
2018-11-26T07:52:49.769Z,22.5
2018-11-26T07:54:49.762Z,24.1
2018-11-26T07:56:49.981Z,23.1
2018-11-26T07:58:49.988Z,25.2
2018-11-26T08:00:49.996Z,25.2
2018-11-26T08:02:50.000Z,22.5
2018-11-26T08:04:50.233Z,21.3
2018-11-26T08:06:49.526Z,21.3
2018-11-26T08:08:49.519Z,22.2
2018-11-26T08:10:49.497Z,22.2
2018-11-26T08:12:49.574Z,23.7
2018-11-26T08:14:49.723Z,21.0
2018-11-26T08:16:49.942Z,24.4
2018-11-26T08:18:49.899Z,24.4
2018-11-26T08:20:49.912Z,24.2
2018-11-26T08:22:49.989Z,24.2
2018-11-26T08:24:50.066Z,24.3
2018-11-26T08:26:50.241Z,24.1
2018-11-26T08:28:50.245Z,25.6
2018-11-26T08:30:50.289Z,25.6
2018-11-26T08:32:50.247Z,24.2
2018-11-26T08:34:49.699Z,27.7
2018-11-26T08:36:50.009Z,25.4
2018-11-26T08:38:50.010Z,23.8
2018-11-26T08:40:49.726Z,23.8
2018-11-26T08:42:49.757Z,24.1
2018-11-26T08:44:49.780Z,21.1
2018-11-26T08:46:49.982Z,22.4
2018-11-26T08:48:49.892Z,24.5
2018-11-26T08:50:49.860Z,24.5
2018-11-26T08:52:49.876Z,22.2
2018-11-26T08:54:49.886Z,23.1
2018-11-26T08:56:50.014Z,21.6
2018-11-26T08:58:49.972Z,21.6
2018-11-26T09:00:49.921Z,20.4
2018-11-26T09:02:50.089Z,23.2
2018-11-26T09:04:50.249Z,20.3
2018-11-26T09:06:49.446Z,21.0
2018-11-26T09:08:49.469Z,21.0
2018-11-26T09:10:50.430Z,20.2
2018-11-26T09:12:49.459Z,20.2
2018-11-26T09:14:49.549Z,21.0
2018-11-26T09:16:49.687Z,22.8
2018-11-26T09:18:49.669Z,26.9
2018-11-26T09:20:49.681Z,26.9
2018-11-26T09:22:49.660Z,17.3
2018-11-26T09:24:49.655Z,20.2
2018-11-26T09:26:49.791Z,24.6
2018-11-26T09:28:49.797Z,16.8
2018-11-26T09:30:49.756Z,16.8
2018-11-26T09:32:49.745Z,17.1
2018-11-26T09:34:50.088Z,16.2
2018-11-26T09:36:50.260Z,15.6
2018-11-26T09:38:50.326Z,15.6
2018-11-26T09:40:50.158Z,17.7
2018-11-26T09:42:50.087Z,15.3
2018-11-26T09:44:50.166Z,17.0
2018-11-26T09:46:49.536Z,17.0
2018-11-26T09:48:49.462Z,17.1
2018-11-26T09:50:49.564Z,15.3
2018-11-26T09:52:49.532Z,15.3
2018-11-26T09:54:49.557Z,17.0
2018-11-26T09:56:49.847Z,17.0
2018-11-26T09:58:49.867Z,15.8
2018-11-26T10:00:49.884Z,15.8
2018-11-26T10:02:49.831Z,15.8
2018-11-26T10:04:50.068Z,15.9
2018-11-26T10:06:50.272Z,15.9
2018-11-26T10:08:50.305Z,17.0
2018-11-26T10:10:50.373Z,17.0
2018-11-26T10:12:50.396Z,15.6
2018-11-26T10:14:50.391Z,18.7
2018-11-26T10:16:49.631Z,18.7
2018-11-26T10:18:49.629Z,18.8
2018-11-26T10:20:49.579Z,18.8
2018-11-26T10:22:49.647Z,18.8
2018-11-26T10:24:50.250Z,20.1
2018-11-26T10:26:49.458Z,17.2
2018-11-26T10:28:49.508Z,17.1
2018-11-26T10:30:49.528Z,15.7
2018-11-26T10:32:49.547Z,17.2
2018-11-26T10:34:49.980Z,17.2
2018-11-26T10:36:50.281Z,15.9
2018-11-26T10:38:50.280Z,17.6
2018-11-26T10:40:50.213Z,15.8
2018-11-26T10:42:50.259Z,16.9
2018-11-26T10:44:50.267Z,16.9
2018-11-26T10:46:49.545Z,16.5
2018-11-26T10:48:49.592Z,18.6
2018-11-26T10:50:49.611Z,16.3
2018-11-26T10:52:49.737Z,16.8
2018-11-26T10:54:49.711Z,16.8
2018-11-26T10:56:49.888Z,15.7
2018-11-26T10:58:49.905Z,16.6
2018-11-26T11:00:49.909Z,20.1
2018-11-26T11:02:49.957Z,18.2
2018-11-26T11:04:50.410Z,18.2
2018-11-26T11:06:55.630Z,15.9
2018-11-26T11:08:49.923Z,17.1
2018-11-26T11:10:49.905Z,15.0
2018-11-26T11:12:49.818Z,14.7
2018-11-26T11:14:49.795Z,14.7
2018-11-26T11:16:50.093Z,17.7
2018-11-26T11:18:50.113Z,16.6
2018-11-26T11:20:50.106Z,15.1
2018-11-26T11:22:50.065Z,15.1
2018-11-26T11:24:50.019Z,15.1
2018-11-26T11:26:50.190Z,15.9
2018-11-26T11:28:50.212Z,18.6
2018-11-26T11:30:50.279Z,15.0
2018-11-26T11:32:50.228Z,15.0
2018-11-26T11:34:49.472Z,17.7
2018-11-26T11:36:49.882Z,14.2
2018-11-26T11:38:49.880Z,13.9
2018-11-26T11:40:49.831Z,14.9
2018-11-26T11:42:49.800Z,14.9
2018-11-26T11:44:49.741Z,14.4
2018-11-26T11:46:49.878Z,14.3
2018-11-26T11:48:49.924Z,14.9
2018-11-26T11:50:49.954Z,14.9
2018-11-26T11:52:50.108Z,18.2
2018-11-26T11:54:50.131Z,19.7
2018-11-26T11:56:50.322Z,19.7
2018-11-26T11:58:50.338Z,15.4
2018-11-26T12:00:50.272Z,15.4
2018-11-26T12:02:50.209Z,15.7
2018-11-26T12:04:49.673Z,24.1
2018-11-26T12:06:49.765Z,16.3
2018-11-26T12:08:49.702Z,15.0
2018-11-26T12:10:49.605Z,15.0
2018-11-26T12:12:49.710Z,14.8
2018-11-26T12:14:49.729Z,14.8
2018-11-26T12:16:50.029Z,24.1
2018-11-26T12:18:49.972Z,17.9
2018-11-26T12:20:49.961Z,19.9
2018-11-26T12:22:49.961Z,19.9
2018-11-26T12:24:49.941Z,15.1
2018-11-26T12:26:50.105Z,17.7
2018-11-26T12:28:50.115Z,17.7
2018-11-26T12:30:50.111Z,19.4
2018-11-26T12:32:50.126Z,17.3
2018-11-26T12:34:50.295Z,15.6
2018-11-26T12:36:50.353Z,18.4
2018-11-26T12:38:50.308Z,18.4
2018-11-26T12:40:50.258Z,15.3
2018-11-26T12:42:50.265Z,15.3
2018-11-26T12:44:50.316Z,18.1
2018-11-26T12:46:49.468Z,18.1
2018-11-26T12:48:49.493Z,21.0
2018-11-26T12:50:49.510Z,17.5
2018-11-26T12:52:49.564Z,17.5
2018-11-26T12:54:49.600Z,15.9
2018-11-26T12:56:49.896Z,15.0
2018-11-26T12:58:49.871Z,19.3
2018-11-26T13:00:49.922Z,21.0
2018-11-26T13:02:49.802Z,21.0
2018-11-26T13:04:50.095Z,17.1
2018-11-26T13:06:50.291Z,15.5
2018-11-26T13:08:50.201Z,14.2
2018-11-26T13:10:50.242Z,16.6
2018-11-26T13:12:50.234Z,16.6
2018-11-26T13:14:50.224Z,16.5
2018-11-26T13:16:50.446Z,15.9
2018-11-26T13:18:50.410Z,15.9
2018-11-26T13:20:50.420Z,14.9
2018-11-26T13:22:50.291Z,14.9
2018-11-26T13:24:50.227Z,14.9
2018-11-26T13:26:49.460Z,24.7
2018-11-26T13:28:50.407Z,18.1
2018-11-26T13:30:50.414Z,18.1
2018-11-26T13:32:50.419Z,14.1
2018-11-26T13:34:49.632Z,14.1
2018-11-26T13:36:49.859Z,16.6
2018-11-26T13:38:49.760Z,31.4
2018-11-26T13:40:49.791Z,31.4
2018-11-26T13:42:49.735Z,24.4
2018-11-26T13:44:49.696Z,17.8
2018-11-26T13:46:49.759Z,21.1
2018-11-26T13:48:49.680Z,21.1
2018-11-26T13:50:49.776Z,22.4
2018-11-26T13:52:49.710Z,19.0
2018-11-26T13:54:49.673Z,19.0
2018-11-26T13:56:49.854Z,18.4
2018-11-26T13:58:49.781Z,18.4
2018-11-26T14:00:49.702Z,33.9
2018-11-26T14:02:49.700Z,18.9
2018-11-26T14:04:50.016Z,20.2
2018-11-26T14:06:50.160Z,22.5
2018-11-26T14:08:50.098Z,22.5
2018-11-26T14:10:50.070Z,23.9
2018-11-26T14:12:49.946Z,22.7
2018-11-26T14:14:51.716Z,22.7
2018-11-26T14:16:49.976Z,27.4
2018-11-26T14:18:49.880Z,25.7
2018-11-26T14:20:49.776Z,21.5
2018-11-26T14:22:49.765Z,20.7
2018-11-26T14:24:49.727Z,20.7
2018-11-26T14:26:50.014Z,26.3
2018-11-26T14:28:49.984Z,30.6
2018-11-26T14:30:49.970Z,30.6
2018-11-26T14:32:49.968Z,34.9
2018-11-26T14:34:50.226Z,43.3
2018-11-26T14:36:50.291Z,39.0
2018-11-26T14:38:50.209Z,39.0
2018-11-26T14:40:50.153Z,37.3
2018-11-26T14:42:50.146Z,37.0
2018-11-26T14:44:50.235Z,37.8
2018-11-26T14:46:50.359Z,37.8
2018-11-26T14:48:50.307Z,40.8
2018-11-26T14:50:50.370Z,39.7
2018-11-26T14:52:50.384Z,42.8
2018-11-26T14:54:49.446Z,42.8
2018-11-26T14:56:49.634Z,46.9
2018-11-26T14:58:49.613Z,43.9
2018-11-26T15:00:49.607Z,41.7
2018-11-26T15:02:49.635Z,41.3
2018-11-26T15:04:49.954Z,38.7
2018-11-26T15:06:50.180Z,38.7
2018-11-26T15:08:50.095Z,40.0
2018-11-26T15:10:50.028Z,42.3
2018-11-26T15:12:49.985Z,42.3
2018-11-26T15:14:49.932Z,43.2
2018-11-26T15:16:50.046Z,37.5
2018-11-26T15:18:50.094Z,38.1
2018-11-26T15:20:50.031Z,35.4
2018-11-26T15:22:50.034Z,35.4
2018-11-26T15:24:49.996Z,38.6
2018-11-26T15:26:53.215Z,38.4
2018-11-26T15:28:49.795Z,40.3
2018-11-26T15:30:49.711Z,42.4
2018-11-26T15:32:49.680Z,42.4
2018-11-26T15:34:49.991Z,45.2
2018-11-26T15:36:50.130Z,38.3
2018-11-26T15:38:50.101Z,37.9
2018-11-26T15:40:50.038Z,33.3
2018-11-26T15:42:50.380Z,33.3
2018-11-26T15:44:50.434Z,36.9
2018-11-26T15:46:49.582Z,49.5
2018-11-26T15:48:49.653Z,49.5
2018-11-26T15:50:49.696Z,37.0
2018-11-26T15:52:49.636Z,37.0
2018-11-26T15:54:49.646Z,37.2
2018-11-26T15:56:49.762Z,35.5
2018-11-26T15:58:49.748Z,35.0
2018-11-26T16:00:49.722Z,37.4
2018-11-26T16:02:49.719Z,37.4
2018-11-26T16:04:49.936Z,35.4
2018-11-26T16:06:50.045Z,36.6
2018-11-26T16:08:50.046Z,38.9
2018-11-26T16:10:49.952Z,38.9
2018-11-26T16:12:49.940Z,35.4
2018-11-26T16:14:49.923Z,35.9
2018-11-26T16:16:50.044Z,35.9
2018-11-26T16:18:50.124Z,37.0
2018-11-26T16:20:50.113Z,36.2
2018-11-26T16:22:50.128Z,35.0
2018-11-26T16:24:50.254Z,35.0
2018-11-26T16:26:49.561Z,37.6
2018-11-26T16:28:49.593Z,39.9
2018-11-26T16:30:49.592Z,35.9
2018-11-26T16:32:49.643Z,35.9
2018-11-26T16:34:49.984Z,37.5
2018-11-26T16:36:50.134Z,52.0
2018-11-26T16:38:50.109Z,39.3
2018-11-26T16:40:50.146Z,36.7
2018-11-26T16:42:50.060Z,36.7
2018-11-26T16:44:50.180Z,34.8
2018-11-26T16:46:50.324Z,35.7
2018-11-26T16:48:50.265Z,35.7
2018-11-26T16:50:50.300Z,35.7
2018-11-26T16:52:50.257Z,34.6
2018-11-26T16:54:49.654Z,34.0
2018-11-26T16:56:49.836Z,35.6
2018-11-26T16:58:49.752Z,36.7
2018-11-26T17:00:49.714Z,35.7
2018-11-26T17:02:49.672Z,35.7
2018-11-26T17:04:49.890Z,33.8
2018-11-26T17:06:50.067Z,39.9
2018-11-26T17:08:50.071Z,33.7
2018-11-26T17:10:50.104Z,33.7
2018-11-26T17:12:50.058Z,34.6
2018-11-26T17:14:50.090Z,36.1
2018-11-26T17:16:50.227Z,34.4
2018-11-26T17:18:50.165Z,35.5
2018-11-26T17:20:50.137Z,35.5
2018-11-26T17:22:50.111Z,36.5
2018-11-26T17:24:50.046Z,38.6
2018-11-26T17:26:50.247Z,37.0
2018-11-26T17:28:50.164Z,37.0
2018-11-26T17:30:50.131Z,39.0
2018-11-26T17:32:50.110Z,39.5
2018-11-26T17:34:50.297Z,40.4
2018-11-26T17:36:49.464Z,38.9
2018-11-26T17:38:49.563Z,38.7
2018-11-26T17:40:49.559Z,38.7
2018-11-26T17:42:49.605Z,40.0
2018-11-26T17:44:49.591Z,40.7
2018-11-26T17:46:49.788Z,41.1
2018-11-26T17:48:49.748Z,37.6
2018-11-26T17:50:49.772Z,37.6
2018-11-26T17:52:49.796Z,38.4
2018-11-26T17:54:49.782Z,38.2
2018-11-26T17:56:49.874Z,39.9
2018-11-26T17:58:49.860Z,40.0
2018-11-26T18:00:49.791Z,40.0
2018-11-26T18:02:49.787Z,38.9
2018-11-26T18:04:50.104Z,39.1
2018-11-26T18:06:50.306Z,39.1
2018-11-26T18:08:50.331Z,39.8
2018-11-26T18:10:50.254Z,40.4
2018-11-26T18:12:50.278Z,37.8
2018-11-26T18:14:50.303Z,39.3
2018-11-26T18:16:49.446Z,39.3
2018-11-26T18:18:49.453Z,38.0
2018-11-26T18:20:49.472Z,36.4
2018-11-26T18:22:50.414Z,36.4
2018-11-26T18:24:49.545Z,37.8
2018-11-26T18:26:49.796Z,37.8
2018-11-26T18:28:49.801Z,35.9
2018-11-26T18:30:49.764Z,32.9
2018-11-26T18:32:49.821Z,37.3
2018-11-26T18:34:50.103Z,37.3
2018-11-26T18:36:50.231Z,36.2
2018-11-26T18:38:50.255Z,38.5
2018-11-26T18:40:50.268Z,34.7
2018-11-26T18:42:50.264Z,34.2
2018-11-26T18:44:50.309Z,34.2
2018-11-26T18:46:49.603Z,36.0
2018-11-26T18:48:49.740Z,32.6
2018-11-26T18:50:49.768Z,36.3
2018-11-26T18:52:49.669Z,33.0
2018-11-26T18:54:49.673Z,33.0
2018-11-26T18:56:49.893Z,32.1
2018-11-26T18:58:49.871Z,32.1
2018-11-26T19:00:49.896Z,32.1
2018-11-26T19:02:49.865Z,33.3
2018-11-26T19:04:49.747Z,33.3
2018-11-26T19:06:49.891Z,31.2
2018-11-26T19:08:49.982Z,31.4
2018-11-26T19:10:49.980Z,30.6
2018-11-26T19:12:50.084Z,30.7
2018-11-26T19:14:50.092Z,30.7
2018-11-26T19:16:50.197Z,36.3
2018-11-26T19:18:50.200Z,32.0
2018-11-26T19:20:50.179Z,34.6
2018-11-26T19:22:50.177Z,34.6
2018-11-26T19:24:50.158Z,34.5
2018-11-26T19:26:50.365Z,34.5
2018-11-26T19:28:49.625Z,33.6
2018-11-26T19:30:49.702Z,34.2
2018-11-26T19:32:49.720Z,30.7
2018-11-26T19:34:49.962Z,30.7
2018-11-26T19:36:50.103Z,34.1
2018-11-26T19:38:50.222Z,32.1
2018-11-26T19:40:50.190Z,35.4
2018-11-26T19:42:50.093Z,34.7
2018-11-26T19:44:49.786Z,34.7
2018-11-26T19:46:50.188Z,37.6
2018-11-26T19:48:50.266Z,36.0
2018-11-26T19:50:50.422Z,36.0
2018-11-26T19:52:49.560Z,35.1
2018-11-26T19:54:49.703Z,33.6
2018-11-26T19:56:49.874Z,33.4
2018-11-26T19:58:49.806Z,33.4
2018-11-26T20:00:49.832Z,32.9
2018-11-26T20:02:49.783Z,32.9
2018-11-26T20:04:50.050Z,33.3
2018-11-26T20:06:50.244Z,32.0
2018-11-26T20:08:50.257Z,32.1
2018-11-26T20:10:50.189Z,32.4
2018-11-26T20:12:50.147Z,32.4
2018-11-26T20:14:50.158Z,32.1
2018-11-26T20:16:50.278Z,27.7
2018-11-26T20:18:50.338Z,32.0
2018-11-26T20:20:50.333Z,32.0
2018-11-26T20:22:50.379Z,31.3
2018-11-26T20:24:50.384Z,31.8
2018-11-26T20:26:49.621Z,35.7
2018-11-26T20:28:49.697Z,33.6
2018-11-26T20:30:49.664Z,33.6
2018-11-26T20:32:49.623Z,28.8
2018-11-26T20:34:50.079Z,31.0
2018-11-26T20:36:50.296Z,31.0
2018-11-26T20:38:50.335Z,29.1
2018-11-26T20:40:50.368Z,29.1
2018-11-26T20:42:49.515Z,31.5
2018-11-26T20:44:49.606Z,31.1
2018-11-26T20:46:49.927Z,31.2
2018-11-26T20:48:49.933Z,31.2
2018-11-26T20:50:49.907Z,29.9
2018-11-26T20:52:49.891Z,29.9
2018-11-26T20:54:49.893Z,29.9
2018-11-26T20:56:50.066Z,28.5
2018-11-26T20:58:50.076Z,28.5
2018-11-26T21:00:50.018Z,31.1
2018-11-26T21:02:49.997Z,30.4
2018-11-26T21:04:50.315Z,32.5
2018-11-26T21:06:49.512Z,32.5
2018-11-26T21:08:49.566Z,31.0
2018-11-26T21:10:49.575Z,32.4
2018-11-26T21:12:49.598Z,30.4
2018-11-26T21:14:49.629Z,30.6
2018-11-26T21:16:49.929Z,30.6
2018-11-26T21:18:49.914Z,28.4
2018-11-26T21:20:49.908Z,27.6
2018-11-26T21:22:49.908Z,29.9
2018-11-26T21:24:49.926Z,30.2
2018-11-26T21:26:50.070Z,30.2
2018-11-26T21:28:50.117Z,30.2
2018-11-26T21:30:52.142Z,29.8
2018-11-26T21:32:50.416Z,30.8
2018-11-26T21:34:49.724Z,37.2
2018-11-26T21:36:50.018Z,30.3
2018-11-26T21:38:50.036Z,30.3
2018-11-26T21:40:50.089Z,30.3
2018-11-26T21:42:50.102Z,30.6
2018-11-26T21:44:50.049Z,31.5
2018-11-26T21:46:52.938Z,31.2
2018-11-26T21:48:49.561Z,32.0
2018-11-26T21:50:49.519Z,32.0
2018-11-26T21:52:49.563Z,29.9
2018-11-26T21:54:49.570Z,29.9
2018-11-26T21:56:49.800Z,35.1
2018-11-26T21:58:49.760Z,35.1
2018-11-26T22:00:49.737Z,33.7
2018-11-26T22:02:49.718Z,36.2
2018-11-26T22:04:50.023Z,34.3
2018-11-26T22:06:50.147Z,34.7
2018-11-26T22:08:50.138Z,34.7
2018-11-26T22:10:50.047Z,35.6
2018-11-26T22:12:50.198Z,34.8
2018-11-26T22:14:50.142Z,34.9
2018-11-26T22:16:50.317Z,36.3
2018-11-26T22:18:51.123Z,36.3
2018-11-26T22:20:50.123Z,35.5
2018-11-26T22:22:50.172Z,36.8
2018-11-26T22:24:50.237Z,36.1
2018-11-26T22:26:49.433Z,36.1
2018-11-26T22:28:50.411Z,35.9
2018-11-26T22:30:50.434Z,35.9
2018-11-26T22:32:49.442Z,35.9
2018-11-26T22:34:49.840Z,35.9
2018-11-26T22:36:50.064Z,34.5
2018-11-26T22:38:50.070Z,34.9
2018-11-26T22:40:50.040Z,34.1
2018-11-26T22:42:50.004Z,33.8
2018-11-26T22:44:50.017Z,33.3
2018-11-26T22:46:50.159Z,33.3
2018-11-26T22:48:50.196Z,31.3
2018-11-26T22:50:50.196Z,34.5
2018-11-26T22:52:50.217Z,34.5
2018-11-26T22:54:50.254Z,32.7
2018-11-26T22:56:50.391Z,30.5
2018-11-26T22:58:50.328Z,28.8
2018-11-26T23:00:50.444Z,28.4
2018-11-26T23:02:50.417Z,28.4
2018-11-26T23:04:49.680Z,29.4
2018-11-26T23:06:49.788Z,28.1
2018-11-26T23:08:49.756Z,29.4
2018-11-26T23:10:49.653Z,29.4
2018-11-26T23:12:49.617Z,30.8
2018-11-26T23:14:49.602Z,30.8
2018-11-26T23:16:49.914Z,28.9
2018-11-26T23:18:49.890Z,31.1
2018-11-26T23:20:49.809Z,34.4
2018-11-26T23:22:49.770Z,34.4
2018-11-26T23:24:49.703Z,31.2
2018-11-26T23:26:49.883Z,32.7
2018-11-26T23:28:49.824Z,33.5
2018-11-26T23:30:49.743Z,33.5
2018-11-26T23:32:49.742Z,32.5
2018-11-26T23:34:50.082Z,34.7
2018-11-26T23:36:50.193Z,34.7
2018-11-26T23:38:50.266Z,33.3
2018-11-26T23:40:50.296Z,36.5
2018-11-26T23:42:50.266Z,35.3
2018-11-26T23:44:50.271Z,35.3
2018-11-26T23:46:50.313Z,36.5
2018-11-26T23:48:50.324Z,35.1
2018-11-26T23:50:50.398Z,36.0
2018-11-26T23:52:49.442Z,36.0
2018-11-26T23:54:49.663Z,35.8
2018-11-26T23:56:49.794Z,35.9
2018-11-26T23:58:49.799Z,38.5
